createdAt,value
2019-05-01T00:02:26.462Z,68.47
2019-05-01T00:04:59.664Z,66.80
2019-05-01T00:07:32.895Z,69.00
2019-05-01T00:10:01.540Z,71.40
2019-05-01T00:12:30.234Z,72.13
2019-05-01T00:14:59.104Z,64.10
2019-05-01T00:17:27.960Z,70.97
2019-05-01T00:19:56.822Z,69.80
2019-05-01T00:22:25.429Z,77.37
2019-05-01T00:24:54.084Z,72.60
2019-05-01T00:27:22.595Z,75.03
2019-05-01T00:29:58.045Z,80.20
2019-05-01T00:32:29.809Z,77.37
2019-05-01T00:34:58.297Z,75.07
2019-05-01T00:37:26.916Z,72.60
2019-05-01T00:39:55.462Z,76.50
2019-05-01T00:42:24.013Z,72.57
2019-05-01T00:44:52.580Z,72.43
2019-05-01T00:47:21.140Z,79.17
2019-05-01T00:49:49.621Z,76.93
2019-05-01T00:52:18.158Z,86.53
2019-05-01T00:54:52.813Z,93.90
2019-05-01T00:57:25.740Z,86.63
2019-05-01T01:00:07.910Z,90.07
2019-05-01T01:02:38.178Z,87.60
2019-05-01T01:05:07.495Z,96.47
2019-05-01T01:07:36.103Z,83.23
2019-05-01T01:10:12.881Z,88.57
2019-05-01T01:12:42.124Z,87.23
2019-05-01T01:15:10.887Z,91.83
2019-05-01T01:17:39.363Z,95.00
2019-05-01T01:20:08.154Z,90.53
2019-05-01T01:22:36.837Z,82.40
2019-05-01T01:25:06.819Z,87.67
2019-05-01T01:27:38.260Z,94.93
2019-05-01T01:30:08.542Z,90.43
2019-05-01T01:32:44.686Z,77.70
2019-05-01T01:35:13.325Z,78.33
2019-05-01T01:37:44.519Z,71.33
2019-05-01T01:40:28.038Z,88.47
2019-05-01T01:42:59.699Z,75.93
2019-05-01T01:45:37.228Z,76.77
2019-05-01T01:48:12.762Z,83.73
2019-05-01T01:50:44.045Z,75.43
2019-05-01T01:53:17.020Z,78.37
2019-05-01T01:55:47.364Z,86.83
2019-05-01T01:58:17.566Z,87.47
2019-05-01T02:01:09.838Z,76.80
2019-05-01T02:03:40.212Z,79.33
2019-05-01T02:06:09.191Z,82.40
2019-05-01T02:08:37.844Z,88.53
2019-05-01T02:11:06.554Z,77.43
2019-05-01T02:13:36.489Z,92.33
2019-05-01T02:16:06.754Z,87.63
2019-05-01T02:18:35.723Z,81.37
2019-05-01T02:21:04.902Z,81.13
2019-05-01T02:23:33.495Z,85.97
2019-05-01T02:26:02.707Z,73.40
2019-05-01T02:28:33.571Z,75.43
2019-05-01T02:31:08.253Z,79.00
2019-05-01T02:33:40.110Z,78.37
2019-05-01T02:36:12.332Z,81.73
2019-05-01T02:38:43.285Z,86.43
2019-05-01T02:41:14.533Z,80.73
2019-05-01T02:43:45.900Z,82.47
2019-05-01T02:46:17.640Z,79.47
2019-05-01T02:48:52.773Z,77.53
2019-05-01T02:51:20.299Z,81.83
2019-05-01T02:53:50.409Z,83.50
2019-05-01T02:56:34.187Z,84.83
2019-05-01T02:59:04.850Z,73.40
2019-05-01T03:01:46.380Z,81.70
2019-05-01T03:04:07.077Z,81.53
2019-05-01T03:06:37.022Z,69.00
2019-05-01T03:09:08.147Z,70.47
2019-05-01T03:11:39.332Z,60.17
2019-05-01T03:14:13.189Z,67.67
2019-05-01T03:16:42.346Z,60.47
2019-05-01T03:19:26.016Z,65.63
2019-05-01T03:21:59.097Z,68.97
2019-05-01T03:24:28.619Z,52.30
2019-05-01T03:26:57.877Z,50.50
2019-05-01T03:29:26.499Z,52.47
2019-05-01T03:32:15.784Z,47.60
2019-05-01T03:34:27.846Z,55.20
2019-05-01T03:36:57.024Z,53.27
2019-05-01T03:39:26.749Z,48.30
2019-05-01T03:41:55.614Z,41.40
2019-05-01T03:44:24.933Z,45.10
2019-05-01T03:46:53.806Z,42.43
2019-05-01T03:49:22.942Z,43.33
2019-05-01T03:51:56.090Z,42.30
2019-05-01T03:54:24.873Z,41.23
2019-05-01T03:56:53.351Z,44.87
2019-05-01T03:59:26.752Z,47.40
2019-05-01T04:02:31.597Z,41.70
2019-05-01T04:04:45.385Z,42.80
2019-05-01T04:07:14.197Z,49.90
2019-05-01T04:09:45.673Z,39.60
2019-05-01T04:12:14.813Z,44.57
2019-05-01T04:14:43.583Z,44.40
2019-05-01T04:17:19.616Z,41.03
2019-05-01T04:19:48.386Z,44.57
2019-05-01T04:22:20.647Z,40.93
2019-05-01T04:24:49.432Z,40.37
2019-05-01T04:27:19.751Z,45.93
2019-05-01T04:29:56.279Z,43.80
2019-05-01T04:32:29.724Z,45.77
2019-05-01T04:35:00.967Z,47.53
2019-05-01T04:37:32.575Z,47.90
2019-05-01T04:40:01.245Z,44.20
2019-05-01T04:42:33.069Z,41.73
2019-05-01T04:45:05.482Z,50.30
2019-05-01T04:47:34.397Z,41.80
2019-05-01T04:50:06.420Z,42.63
2019-05-01T04:52:35.093Z,41.87
2019-05-01T04:55:04.920Z,43.10
2019-05-01T04:57:34.171Z,46.53
2019-05-01T05:00:04.879Z,42.27
2019-05-01T05:02:35.311Z,50.10
2019-05-01T05:05:05.219Z,41.10
2019-05-01T05:07:33.908Z,41.57
2019-05-01T05:10:03.883Z,47.17
2019-05-01T05:12:43.227Z,47.00
2019-05-01T05:15:15.992Z,50.50
2019-05-01T05:17:45.161Z,47.50
2019-05-01T05:20:13.793Z,46.60
2019-05-01T05:22:43.253Z,44.60
2019-05-01T05:28:05.129Z,52.63
2019-05-01T05:30:42.651Z,56.13
2019-05-01T05:33:18.176Z,43.50
2019-05-01T05:35:48.611Z,47.77
2019-05-01T05:38:23.192Z,47.73
2019-05-01T05:40:52.358Z,43.80
2019-05-01T05:43:21.365Z,44.60
2019-05-01T05:45:49.993Z,44.17
2019-05-01T05:48:20.080Z,51.57
2019-05-01T05:50:57.699Z,52.80
2019-05-01T05:53:29.963Z,43.07
2019-05-01T05:56:08.482Z,47.90
2019-05-01T05:58:50.394Z,46.87
2019-05-01T06:01:38.842Z,43.03
2019-05-01T06:04:17.725Z,43.23
2019-05-01T06:07:02.497Z,42.90
2019-05-01T06:09:35.051Z,41.37
2019-05-01T06:12:10.170Z,40.43
2019-05-01T06:15:02.328Z,45.57
2019-05-01T06:17:29.895Z,43.93
2019-05-01T06:20:00.362Z,42.30
2019-05-01T06:22:34.462Z,48.30
2019-05-01T06:25:22.350Z,41.67
2019-05-01T06:27:49.252Z,48.53
2019-05-01T06:30:17.986Z,47.10
2019-05-01T06:32:54.230Z,48.83
2019-05-01T06:35:25.505Z,43.83
2019-05-01T06:38:08.964Z,51.03
2019-05-01T06:40:39.567Z,44.70
2019-05-01T06:43:12.826Z,44.80
2019-05-01T06:45:51.628Z,45.60
2019-05-01T06:48:21.288Z,41.27
2019-05-01T06:50:57.328Z,46.10
2019-05-01T06:53:30.212Z,40.03
2019-05-01T06:55:58.816Z,45.27
2019-05-01T06:58:27.345Z,41.33
2019-05-01T07:00:56.016Z,39.10
2019-05-01T07:03:26.165Z,48.07
2019-05-01T07:05:56.228Z,51.87
2019-05-01T07:08:29.479Z,43.07
2019-05-01T07:10:56.996Z,47.83
2019-05-01T07:13:27.722Z,46.97
2019-05-01T07:15:58.393Z,56.47
2019-05-01T07:18:29.103Z,48.33
2019-05-01T07:20:57.325Z,45.13
2019-05-01T07:23:26.362Z,54.33
2019-05-01T07:25:55.104Z,47.00
2019-05-01T07:28:28.879Z,44.97
2019-05-01T07:30:57.282Z,52.37
2019-05-01T07:33:26.052Z,48.57
2019-05-01T07:35:54.887Z,52.50
2019-05-01T07:38:23.898Z,45.97
2019-05-01T07:40:52.683Z,48.83
2019-05-01T07:43:31.925Z,45.90
2019-05-01T07:46:02.408Z,42.10
2019-05-01T07:48:36.010Z,43.07
2019-05-01T07:51:06.945Z,50.50
2019-05-01T07:53:36.559Z,39.37
2019-05-01T07:56:05.846Z,40.23
2019-05-01T07:58:35.940Z,36.53
2019-05-01T08:01:06.289Z,38.87
2019-05-01T08:03:38.053Z,34.53
2019-05-01T08:06:07.046Z,36.00
2019-05-01T08:08:39.549Z,37.33
2019-05-01T08:11:10.417Z,29.93
2019-05-01T08:13:39.182Z,32.60
2019-05-01T08:16:08.818Z,31.53
2019-05-01T08:18:48.073Z,28.47
2019-05-01T08:21:35.991Z,29.23
2019-05-01T08:24:08.622Z,29.77
2019-05-01T08:26:39.568Z,25.97
2019-05-01T08:29:23.577Z,24.57
2019-05-01T08:32:11.019Z,23.77
2019-05-01T08:34:48.700Z,25.80
2019-05-01T08:37:17.888Z,23.53
2019-05-01T08:39:52.321Z,25.80
2019-05-01T08:42:23.059Z,21.90
2019-05-01T08:44:54.836Z,22.40
2019-05-01T08:47:56.735Z,25.93
2019-05-01T08:50:26.888Z,26.77
2019-05-01T08:53:06.336Z,21.57
2019-05-01T08:55:35.177Z,20.23
2019-05-01T08:58:08.799Z,23.30
2019-05-01T09:00:44.746Z,23.33
2019-05-01T09:03:18.549Z,23.47
2019-05-01T09:05:46.581Z,24.80
2019-05-01T09:08:22.323Z,22.33
2019-05-01T09:10:54.622Z,23.80
2019-05-01T09:13:32.285Z,21.53
2019-05-01T09:16:00.957Z,25.40
2019-05-01T09:18:29.665Z,27.50
2019-05-01T09:20:58.376Z,23.10
2019-05-01T09:23:27.163Z,23.00
2019-05-01T09:26:14.701Z,23.23
2019-05-01T09:29:05.423Z,25.23
2019-05-01T09:31:35.753Z,21.27
2019-05-01T09:34:09.476Z,21.13
2019-05-01T09:36:36.643Z,21.67
2019-05-01T09:39:11.001Z,22.13
2019-05-01T09:42:06.604Z,21.80
2019-05-01T09:45:00.905Z,24.50
2019-05-01T09:47:42.447Z,24.83
2019-05-01T09:53:11.711Z,25.33
2019-05-01T09:56:25.659Z,23.00
2019-05-01T09:59:12.563Z,24.57
2019-05-01T10:01:48.635Z,24.50
2019-05-01T10:04:20.365Z,26.50
2019-05-01T10:06:52.226Z,24.93
2019-05-01T10:09:27.693Z,26.80
2019-05-01T10:12:02.289Z,21.03
2019-05-01T10:14:42.549Z,27.23
2019-05-01T10:17:16.344Z,23.67
2019-05-01T10:22:50.674Z,22.80
2019-05-01T10:25:19.283Z,26.93
2019-05-01T10:28:01.628Z,25.47
2019-05-01T10:30:41.693Z,27.87
2019-05-01T10:33:12.356Z,29.53
2019-05-01T10:35:43.440Z,26.03
2019-05-01T10:38:12.394Z,31.30
2019-05-01T10:40:41.513Z,28.23
2019-05-01T10:43:10.217Z,26.73
2019-05-01T10:45:38.764Z,28.37
2019-05-01T10:48:08.233Z,30.17
2019-05-01T10:50:36.872Z,30.57
2019-05-01T10:53:05.428Z,28.00
2019-05-01T10:55:33.982Z,28.93
2019-05-01T10:58:03.407Z,33.40
2019-05-01T11:00:32.585Z,32.20
2019-05-01T11:03:01.118Z,31.43
2019-05-01T11:05:29.625Z,29.30
2019-05-01T11:07:58.089Z,31.17
2019-05-01T11:10:26.630Z,28.00
2019-05-01T11:12:55.152Z,35.10
2019-05-01T11:15:23.700Z,36.73
2019-05-01T11:17:52.242Z,33.17
2019-05-01T11:20:20.723Z,35.63
2019-05-01T11:22:49.270Z,35.27
2019-05-01T11:25:19.350Z,34.17
2019-05-01T11:27:47.895Z,42.00
2019-05-01T11:30:16.577Z,32.43
2019-05-01T11:33:05.025Z,33.67
2019-05-01T11:35:51.856Z,27.70
2019-05-01T11:38:24.554Z,31.43
2019-05-01T11:40:54.684Z,31.87
2019-05-01T11:43:23.542Z,32.30
2019-05-01T11:45:52.148Z,30.77
2019-05-01T11:48:20.644Z,31.67
2019-05-01T11:50:49.185Z,31.27
2019-05-01T11:53:17.676Z,27.77
2019-05-01T11:55:46.180Z,27.30
2019-05-01T11:58:14.712Z,28.40
2019-05-01T12:00:44.503Z,26.03
2019-05-01T12:03:12.958Z,25.53
2019-05-01T12:05:41.440Z,30.03
2019-05-01T12:08:09.912Z,27.63
2019-05-01T12:10:38.492Z,28.40
2019-05-01T12:13:07.010Z,31.00
2019-05-01T12:15:35.536Z,27.10
2019-05-01T12:18:04.146Z,27.80
2019-05-01T12:20:32.722Z,24.90
2019-05-01T12:23:02.280Z,27.10
2019-05-01T12:25:30.779Z,25.57
2019-05-01T12:27:59.303Z,24.67
2019-05-01T12:30:27.876Z,26.27
2019-05-01T12:32:56.494Z,27.47
2019-05-01T12:35:25.105Z,24.27
2019-05-01T12:37:55.586Z,27.47
2019-05-01T12:40:27.533Z,23.87
2019-05-01T12:42:56.028Z,32.60
2019-05-01T12:45:24.496Z,30.37
2019-05-01T12:47:54.718Z,26.80
2019-05-01T12:50:23.350Z,26.00
2019-05-01T12:53:00.007Z,24.90
2019-05-01T12:55:30.177Z,25.30
2019-05-01T12:57:58.646Z,24.27
2019-05-01T13:00:49.234Z,27.57
2019-05-01T13:03:17.766Z,26.90
2019-05-01T13:05:46.929Z,28.23
2019-05-01T13:08:15.433Z,26.90
2019-05-01T13:10:44.037Z,26.80
2019-05-01T13:13:12.531Z,27.53
2019-05-01T13:15:41.125Z,25.13
2019-05-01T13:18:09.594Z,28.33
2019-05-01T13:20:38.142Z,25.23
2019-05-01T13:23:06.701Z,26.63
2019-05-01T13:25:35.253Z,26.77
2019-05-01T13:28:08.427Z,33.37
2019-05-01T13:30:54.875Z,30.33
2019-05-01T13:33:24.005Z,29.03
2019-05-01T13:35:54.023Z,24.50
2019-05-01T13:38:22.667Z,26.10
2019-05-01T13:40:51.146Z,25.10
2019-05-01T13:43:21.178Z,23.40
2019-05-01T13:45:50.603Z,26.33
2019-05-01T13:48:19.083Z,27.37
2019-05-01T13:50:47.568Z,30.90
2019-05-01T13:53:16.194Z,29.70
2019-05-01T13:55:44.823Z,25.20
2019-05-01T13:58:13.353Z,24.83
2019-05-01T14:00:42.178Z,26.13
2019-05-01T14:03:10.815Z,25.47
2019-05-01T14:05:40.557Z,29.27
2019-05-01T14:08:09.179Z,27.23
2019-05-01T14:10:37.651Z,31.57
2019-05-01T14:13:06.141Z,28.00
2019-05-01T14:15:34.604Z,25.13
2019-05-01T14:18:03.151Z,24.73
2019-05-01T14:20:33.272Z,25.00
2019-05-01T14:23:19.467Z,23.90
2019-05-01T14:26:04.011Z,25.20
2019-05-01T14:28:34.978Z,30.93
2019-05-01T14:31:03.725Z,28.10
2019-05-01T14:33:32.295Z,31.20
2019-05-01T14:36:00.847Z,28.50
2019-05-01T14:38:29.353Z,28.20
2019-05-01T14:40:58.229Z,30.77
2019-05-01T14:43:26.848Z,29.77
2019-05-01T14:45:56.036Z,25.67
2019-05-01T14:48:24.747Z,32.77
2019-05-01T14:50:53.231Z,26.60
2019-05-01T14:53:21.713Z,29.83
2019-05-01T14:55:50.280Z,28.63
2019-05-01T14:58:18.834Z,29.70
2019-05-01T15:00:47.311Z,29.10
2019-05-01T15:03:15.784Z,26.53
2019-05-01T15:05:46.739Z,28.70
2019-05-01T15:08:16.739Z,28.03
2019-05-01T15:10:45.211Z,27.53
2019-05-01T15:13:34.481Z,33.60
2019-05-01T15:16:20.789Z,27.23
2019-05-01T15:18:59.746Z,32.13
2019-05-01T15:21:28.308Z,30.87
2019-05-01T15:23:56.767Z,29.57
2019-05-01T15:26:25.254Z,29.10
2019-05-01T15:28:53.735Z,27.87
2019-05-01T15:31:23.964Z,27.50
2019-05-01T15:33:52.576Z,26.17
2019-05-01T15:36:21.071Z,29.50
2019-05-01T15:38:49.550Z,27.50
2019-05-01T15:41:22.199Z,27.97
2019-05-01T15:44:04.052Z,31.10
2019-05-01T15:46:34.027Z,28.20
2019-05-01T15:49:02.503Z,28.47
2019-05-01T15:51:31.317Z,26.57
2019-05-01T15:53:59.789Z,29.73
2019-05-01T15:56:28.301Z,26.70
2019-05-01T15:58:56.861Z,25.57
2019-05-01T16:01:25.373Z,29.93
2019-05-01T16:03:53.985Z,33.90
2019-05-01T16:06:22.458Z,27.07
2019-05-01T16:08:54.857Z,28.17
2019-05-01T16:11:27.754Z,37.43
2019-05-01T16:13:56.264Z,24.90
2019-05-01T16:16:24.753Z,30.70
2019-05-01T16:18:53.605Z,27.37
2019-05-01T16:21:23.114Z,27.63
2019-05-01T16:23:51.962Z,30.27
2019-05-01T16:26:21.536Z,33.57
2019-05-01T16:28:50.123Z,28.90
2019-05-01T16:31:18.636Z,27.10
2019-05-01T16:33:47.121Z,31.43
2019-05-01T16:36:15.663Z,36.63
2019-05-01T16:39:01.176Z,32.50
2019-05-01T16:41:31.524Z,31.37
2019-05-01T16:43:59.989Z,26.93
2019-05-01T16:46:28.567Z,31.20
2019-05-01T16:48:57.149Z,29.43
2019-05-01T16:51:25.710Z,31.13
2019-05-01T16:53:54.166Z,29.83
2019-05-01T16:56:22.790Z,35.43
2019-05-01T16:58:51.255Z,30.90
2019-05-01T17:01:24.097Z,29.90
2019-05-01T17:03:55.795Z,34.90
2019-05-01T17:06:33.270Z,29.23
2019-05-01T17:09:12.676Z,32.73
2019-05-01T17:11:41.469Z,34.97
2019-05-01T17:14:11.278Z,34.63
2019-05-01T17:16:39.920Z,31.60
2019-05-01T17:19:08.477Z,30.80
2019-05-01T17:21:37.002Z,28.60
2019-05-01T17:24:05.562Z,32.57
2019-05-01T17:26:34.013Z,34.30
2019-05-01T17:29:02.510Z,28.27
2019-05-01T17:31:31.953Z,32.70
2019-05-01T17:34:00.644Z,32.60
2019-05-01T17:36:29.192Z,34.60
2019-05-01T17:38:57.750Z,35.37
2019-05-01T17:41:27.106Z,34.00
2019-05-01T17:43:56.833Z,33.30
2019-05-01T17:46:25.460Z,30.97
2019-05-01T17:48:53.923Z,34.47
2019-05-01T17:51:22.455Z,32.27
2019-05-01T17:53:50.956Z,32.63
2019-05-01T17:56:27.505Z,35.10
2019-05-01T17:58:49.646Z,33.43
2019-05-01T18:01:22.698Z,33.27
2019-05-01T18:03:58.874Z,34.70
2019-05-01T18:06:28.983Z,34.43
2019-05-01T18:09:03.146Z,36.20
2019-05-01T18:11:27.726Z,35.43
2019-05-01T18:13:56.542Z,30.93
2019-05-01T18:16:25.062Z,35.97
2019-05-01T18:18:53.536Z,32.50
2019-05-01T18:21:22.865Z,37.80
2019-05-01T18:23:53.190Z,34.83
2019-05-01T18:26:43.479Z,37.27
2019-05-01T18:29:27.650Z,37.27
2019-05-01T18:32:03.000Z,39.37
2019-05-01T18:34:33.690Z,31.47
2019-05-01T18:37:10.747Z,32.43
2019-05-01T18:39:43.750Z,32.57
2019-05-01T18:42:16.975Z,33.60
2019-05-01T18:44:47.410Z,37.57
2019-05-01T18:47:15.744Z,32.93
2019-05-01T18:49:44.208Z,35.13
2019-05-01T18:52:12.857Z,36.70
2019-05-01T18:54:41.327Z,35.43
2019-05-01T18:57:09.967Z,37.60
2019-05-01T18:59:39.171Z,39.47
2019-05-01T19:02:07.713Z,32.30
2019-05-01T19:04:36.342Z,32.60
2019-05-01T19:07:05.354Z,28.60
2019-05-01T19:09:36.674Z,30.93
2019-05-01T19:12:07.456Z,29.23
2019-05-01T19:14:36.055Z,29.73
2019-05-01T19:17:04.624Z,29.07
2019-05-01T19:19:33.145Z,28.73
2019-05-01T19:22:01.749Z,28.50
2019-05-01T19:24:32.412Z,27.57
2019-05-01T19:27:01.356Z,28.37
2019-05-01T19:29:32.066Z,29.47
2019-05-01T19:32:00.166Z,26.10
2019-05-01T19:34:28.721Z,28.70
2019-05-01T19:36:57.202Z,28.70
2019-05-01T19:39:25.803Z,29.20
2019-05-01T19:41:56.786Z,32.63
2019-05-01T19:44:26.919Z,26.03
2019-05-01T19:46:55.401Z,29.30
2019-05-01T19:49:24.595Z,26.53
2019-05-01T19:51:55.551Z,30.77
2019-05-01T19:54:30.053Z,31.37
2019-05-01T19:56:58.885Z,31.50
2019-05-01T19:59:27.391Z,32.40
2019-05-01T20:01:56.057Z,35.20
2019-05-01T20:04:24.693Z,27.73
2019-05-01T20:06:53.288Z,31.50
2019-05-01T20:09:22.669Z,32.30
2019-05-01T20:11:51.193Z,30.87
2019-05-01T20:14:19.753Z,28.20
2019-05-01T20:16:51.011Z,27.57
2019-05-01T20:19:19.659Z,33.10
2019-05-01T20:21:48.195Z,28.50
2019-05-01T20:24:19.161Z,29.47
2019-05-01T20:26:47.028Z,29.33
2019-05-01T20:29:17.982Z,31.37
2019-05-01T20:31:50.609Z,27.90
2019-05-01T20:34:18.474Z,28.77
2019-05-01T20:36:47.097Z,33.27
2019-05-01T20:39:15.565Z,29.03
2019-05-01T20:41:44.057Z,27.20
2019-05-01T20:44:14.027Z,31.47
2019-05-01T20:46:42.846Z,31.80
2019-05-01T20:49:11.401Z,26.00
2019-05-01T20:51:39.909Z,32.83
2019-05-01T20:54:08.484Z,29.10
2019-05-01T20:56:38.655Z,27.63
2019-05-01T20:59:07.143Z,28.90
2019-05-01T21:01:35.722Z,31.20
2019-05-01T21:04:22.755Z,31.60
2019-05-01T21:07:15.352Z,33.30
2019-05-01T21:09:47.823Z,30.30
2019-05-01T21:12:15.363Z,26.93
2019-05-01T21:14:45.389Z,29.90
2019-05-01T21:17:15.096Z,32.10
2019-05-01T21:19:44.129Z,29.83
2019-05-01T21:22:14.263Z,28.47
2019-05-01T21:24:44.345Z,32.03
2019-05-01T21:27:13.385Z,26.77
2019-05-01T21:29:44.355Z,29.40
2019-05-01T21:32:18.343Z,33.03
2019-05-01T21:34:44.034Z,34.27
2019-05-01T21:37:12.562Z,28.80
2019-05-01T21:39:43.613Z,30.60
2019-05-01T21:42:13.577Z,30.90
2019-05-01T21:44:43.507Z,27.70
2019-05-01T21:47:13.748Z,30.20
2019-05-01T21:49:43.379Z,28.93
2019-05-01T21:52:13.536Z,32.77
2019-05-01T21:54:42.182Z,28.27
2019-05-01T21:57:12.040Z,28.73
2019-05-01T21:59:44.731Z,28.43
2019-05-01T22:02:12.017Z,29.63
2019-05-01T22:04:40.615Z,31.13
2019-05-01T22:07:09.342Z,27.50
2019-05-01T22:09:39.096Z,26.40
2019-05-01T22:12:08.248Z,28.70
2019-05-01T22:14:45.224Z,27.47
2019-05-01T22:17:15.420Z,27.87
2019-05-01T22:19:44.129Z,32.47
2019-05-01T22:22:14.305Z,30.70
2019-05-01T22:25:00.136Z,38.30
2019-05-01T22:27:35.434Z,29.83
2019-05-01T22:30:19.303Z,31.90
2019-05-01T22:32:49.487Z,39.90
2019-05-01T22:35:22.415Z,29.67
2019-05-01T22:37:50.896Z,31.13
2019-05-01T22:40:21.146Z,30.40
2019-05-01T22:42:51.304Z,30.10
2019-05-01T22:45:22.576Z,27.67
2019-05-01T22:47:52.147Z,31.80
2019-05-01T22:50:22.543Z,35.63
2019-05-01T22:52:51.146Z,29.23
2019-05-01T22:55:25.376Z,36.30
2019-05-01T22:57:50.852Z,35.63
2019-05-01T23:00:24.173Z,32.90
2019-05-01T23:02:52.855Z,28.83
2019-05-01T23:05:23.053Z,32.60
2019-05-01T23:07:51.528Z,34.70
2019-05-01T23:10:20.166Z,31.83
2019-05-01T23:12:48.629Z,33.83
2019-05-01T23:15:27.655Z,30.03
2019-05-01T23:17:56.132Z,31.63
2019-05-01T23:20:24.800Z,30.20
2019-05-01T23:22:53.459Z,34.07
2019-05-01T23:25:21.956Z,31.53
2019-05-01T23:27:50.504Z,36.53
2019-05-01T23:30:21.100Z,29.67
2019-05-01T23:32:49.697Z,35.60
2019-05-01T23:35:18.212Z,36.40
2019-05-01T23:37:46.676Z,30.10
2019-05-01T23:40:16.755Z,31.63
2019-05-01T23:42:52.465Z,29.03
2019-05-01T23:45:15.942Z,32.57
2019-05-01T23:47:44.480Z,34.07
2019-05-01T23:50:13.397Z,37.70
2019-05-01T23:52:41.901Z,30.90
2019-05-01T23:55:10.678Z,35.33
2019-05-01T23:57:40.542Z,37.50
